Campania (kinkora), Australia

6:22 AM AEDT on December 10, 2016 (GMT +1100)
Saint Johns Circle | | Change Station

Elev 42 ft 42.73 °S, 147.44 °E | Updated 6 minutes ago

Partly Cloudy
Partly Cloudy
54.3 °F
Feels Like 54.3 °F
N
3.7
Wind Variable Wind from WNW
Gusts 7.5 mph

Today
High -- | Low -- °F
--% Chance of Precip.
Yesterday
High -- | Low -- °F
Precip. -- in
Pressure 29.98 in
Visibility 6.2 miles
Clouds Few 3500 ft
Scattered Clouds 4500 ft
Mostly Cloudy 28000 ft
Dew Point 42 °F
Humidity 62%
Rainfall 0.00 in
Snow Depth Not available.
5:25 AM 8:40 PM
Waxing Gibbous, 76% visible
METAR YMHB 091900Z 32013KT 9999 FEW035 SCT045 BKN280 12/05 Q1015 RF00.0/000.0
Pressure 29.98 in
Visibility 6.2 miles
Clouds Few 3500 ft
Scattered Clouds 4500 ft
Mostly Cloudy 28000 ft
Dew Point 42 °F
Humidity 62%
Rainfall 0.00 in
Snow Depth Not available.
5:25 AM 8:40 PM
Waxing Gibbous, 76% visible
METAR YMHB 091900Z 32013KT 9999 FEW035 SCT045 BKN280 12/05 Q1015 RF00.0/000.0

10-Day Weather Forecast

×

Almanac

Astronomy

Dec. 10, 2016 Rise Set
Actual Time
Civil Twilight
Nautical Twilight
Astronomical Twilight
Moon
Length of Visible Light
Length of Day
Tomorrow will be .
, % of the Moon is Illuminated

Today's Extremes

Country Highs Country Lows

Community

WunderPhotos

Upload Photos

1,956,499 photos uploaded!

WunderBlog® & News

Nearby

Air Quality

  Air Quality AQ Index Pollutant
Not available.

Snow Depth

Station Depth Elevation

Earthquake Activity

City Distance Mag. Time & Date
Minimum magnitude displayed is 2.5.

Coastal Water Temperatures

Place Temperature

Stations

Nearby Weather Stations

Station Location Temp. Windchill Dew Point Humidity Wind Precip. Elev Updated Type